createdAt,value
2019-03-15T00:01:50.919Z,4.98
2019-03-15T00:04:19.501Z,5.01
2019-03-15T00:06:50.323Z,5.02
2019-03-15T00:09:18.790Z,5.01
2019-03-15T00:11:47.348Z,4.98
2019-03-15T00:14:15.876Z,4.96
2019-03-15T00:16:47.273Z,4.98
2019-03-15T00:19:15.746Z,4.95
2019-03-15T00:21:44.290Z,4.96
2019-03-15T00:24:14.405Z,4.95
2019-03-15T00:26:42.918Z,4.96
2019-03-15T00:29:11.395Z,4.90
2019-03-15T00:31:39.883Z,4.87
2019-03-15T00:34:09.634Z,4.85
2019-03-15T00:36:38.116Z,4.88
2019-03-15T00:39:07.068Z,4.87
2019-03-15T00:41:35.694Z,4.85
2019-03-15T00:44:04.349Z,4.89
2019-03-15T00:46:32.981Z,4.86
2019-03-15T00:49:01.488Z,4.84
2019-03-15T00:51:30.090Z,4.85
2019-03-15T00:54:01.142Z,4.87
2019-03-15T00:56:29.725Z,4.85
2019-03-15T00:58:58.380Z,4.87
2019-03-15T01:01:26.884Z,4.88
2019-03-15T01:03:55.529Z,4.89
2019-03-15T01:06:24.017Z,4.90
2019-03-15T01:08:52.571Z,4.89
2019-03-15T01:11:21.024Z,4.85
2019-03-15T01:13:49.518Z,4.88
2019-03-15T01:16:17.970Z,4.90
2019-03-15T01:18:46.503Z,4.90
2019-03-15T01:21:14.957Z,4.93
2019-03-15T01:23:46.368Z,4.91
2019-03-15T01:26:14.851Z,4.93
2019-03-15T01:28:43.326Z,4.91
2019-03-15T01:31:11.823Z,4.89
2019-03-15T01:33:40.371Z,4.90
2019-03-15T01:36:08.910Z,4.89
2019-03-15T01:38:37.371Z,4.89
2019-03-15T01:41:07.643Z,4.87
2019-03-15T01:43:36.107Z,4.84
2019-03-15T01:46:06.215Z,4.87
2019-03-15T01:48:35.625Z,4.89
2019-03-15T01:51:10.523Z,4.94
2019-03-15T01:53:39.021Z,4.87
2019-03-15T01:56:07.501Z,4.88
2019-03-15T01:58:35.957Z,4.86
2019-03-15T02:01:04.765Z,4.87
2019-03-15T02:03:33.229Z,4.88
2019-03-15T02:06:01.712Z,4.85
2019-03-15T02:08:30.183Z,4.86
2019-03-15T02:10:59.534Z,4.87
2019-03-15T02:13:28.005Z,4.83
2019-03-15T02:15:56.463Z,4.87
2019-03-15T02:18:24.942Z,4.86
2019-03-15T02:20:54.577Z,4.89
2019-03-15T02:23:23.554Z,4.87
2019-03-15T02:25:52.085Z,4.88
2019-03-15T02:28:21.049Z,4.86
2019-03-15T02:30:49.640Z,4.91
2019-03-15T02:33:18.097Z,4.89
2019-03-15T02:35:47.233Z,4.90
2019-03-15T02:38:15.842Z,4.89
2019-03-15T02:40:44.412Z,4.87
2019-03-15T02:43:14.481Z,4.88
2019-03-15T02:45:42.955Z,4.90
2019-03-15T02:48:11.437Z,4.91
2019-03-15T02:50:41.012Z,4.91
2019-03-15T02:53:09.975Z,4.86
2019-03-15T02:55:38.493Z,4.89
2019-03-15T02:58:06.970Z,4.89
2019-03-15T03:00:35.426Z,4.87
2019-03-15T03:03:03.941Z,4.89
2019-03-15T03:05:33.599Z,4.87
2019-03-15T03:08:02.750Z,4.89
2019-03-15T03:10:32.779Z,4.87
2019-03-15T03:13:01.304Z,4.84
2019-03-15T03:15:30.264Z,4.88
2019-03-15T03:17:58.839Z,4.87
2019-03-15T03:20:27.334Z,4.84
2019-03-15T03:22:55.785Z,4.87
2019-03-15T03:25:25.985Z,4.96
2019-03-15T03:27:54.443Z,4.96
2019-03-15T03:30:23.132Z,4.94
2019-03-15T03:32:51.662Z,4.92
2019-03-15T03:35:20.409Z,4.93
2019-03-15T03:37:49.041Z,4.94
2019-03-15T03:40:20.007Z,4.91
2019-03-15T03:42:47.906Z,4.95
2019-03-15T03:45:16.570Z,4.97
2019-03-15T03:47:45.095Z,4.91
2019-03-15T03:50:13.752Z,4.95
2019-03-15T03:52:42.224Z,4.93
2019-03-15T03:55:10.971Z,4.90
2019-03-15T03:57:40.306Z,4.93
2019-03-15T04:00:14.606Z,4.94
2019-03-15T04:02:44.750Z,4.90
2019-03-15T04:05:13.410Z,4.86
2019-03-15T04:07:45.104Z,4.86
2019-03-15T04:10:15.272Z,4.89
2019-03-15T04:12:45.268Z,4.88
2019-03-15T04:15:14.008Z,4.88
2019-03-15T04:17:42.657Z,4.87
2019-03-15T04:20:12.837Z,4.85
2019-03-15T04:22:41.338Z,4.87
2019-03-15T04:25:13.914Z,4.84
2019-03-15T04:27:42.385Z,4.79
2019-03-15T04:30:13.489Z,4.78
2019-03-15T04:32:41.952Z,4.73
2019-03-15T04:35:10.683Z,4.72
2019-03-15T04:37:39.462Z,4.75
2019-03-15T04:40:12.743Z,4.70
2019-03-15T04:42:41.330Z,4.70
2019-03-15T04:45:09.956Z,4.66
2019-03-15T04:47:38.498Z,4.66
2019-03-15T04:50:07.859Z,4.69
2019-03-15T04:52:38.716Z,4.70
2019-03-15T04:55:07.918Z,4.70
2019-03-15T04:57:36.994Z,4.69
2019-03-15T05:00:11.592Z,4.71
2019-03-15T05:02:42.499Z,4.75
2019-03-15T05:05:11.201Z,4.75
2019-03-15T05:07:39.710Z,4.81
2019-03-15T05:10:09.839Z,4.80
2019-03-15T05:12:38.736Z,4.85
2019-03-15T05:15:09.490Z,4.86
2019-03-15T05:17:38.002Z,4.88
2019-03-15T05:20:08.935Z,4.91
2019-03-15T05:22:37.487Z,4.93
2019-03-15T05:25:07.393Z,4.98
2019-03-15T05:27:35.945Z,4.99
2019-03-15T05:30:06.774Z,5.01
2019-03-15T05:32:35.252Z,5.00
2019-03-15T05:35:04.406Z,5.00
2019-03-15T05:37:32.877Z,5.00
2019-03-15T05:40:02.376Z,5.03
2019-03-15T05:42:31.855Z,5.04
2019-03-15T05:45:00.439Z,5.06
2019-03-15T05:47:28.873Z,5.06
2019-03-15T05:49:57.395Z,5.12
2019-03-15T05:52:27.503Z,5.10
2019-03-15T05:54:56.003Z,5.10
2019-03-15T05:57:24.475Z,5.13
2019-03-15T05:59:52.990Z,5.15
2019-03-15T06:02:28.448Z,5.14
2019-03-15T06:04:56.246Z,5.14
2019-03-15T06:07:24.718Z,5.10
2019-03-15T06:09:53.224Z,5.08
2019-03-15T06:12:23.245Z,5.12
2019-03-15T06:14:51.703Z,5.10
2019-03-15T06:17:20.172Z,5.09
2019-03-15T06:19:48.648Z,5.10
2019-03-15T06:22:17.111Z,5.10
2019-03-15T06:24:45.570Z,5.10
2019-03-15T06:27:14.104Z,5.16
2019-03-15T06:29:42.506Z,5.18
2019-03-15T06:32:11.392Z,5.19
2019-03-15T06:34:40.212Z,5.14
2019-03-15T06:37:08.670Z,5.15
2019-03-15T06:39:37.657Z,5.14
2019-03-15T06:42:09.612Z,5.17
2019-03-15T06:44:38.017Z,5.19
2019-03-15T06:47:06.542Z,5.19
2019-03-15T06:49:35.015Z,5.21
2019-03-15T06:52:03.462Z,5.25
2019-03-15T06:54:33.634Z,5.23
2019-03-15T06:57:02.110Z,5.23
2019-03-15T06:59:30.578Z,5.26
2019-03-15T07:01:59.051Z,5.28
2019-03-15T07:04:31.146Z,5.27
2019-03-15T07:06:59.573Z,5.29
2019-03-15T07:09:30.788Z,5.29
2019-03-15T07:12:08.927Z,5.29
2019-03-15T07:14:28.480Z,5.31
2019-03-15T07:16:56.931Z,5.33
2019-03-15T07:19:30.026Z,5.28
2019-03-15T07:21:58.618Z,5.34
2019-03-15T07:24:27.108Z,5.39
2019-03-15T07:26:55.577Z,5.44
2019-03-15T07:29:24.131Z,5.40
2019-03-15T07:31:52.606Z,5.45
2019-03-15T07:34:21.087Z,5.47
2019-03-15T07:36:49.570Z,5.48
2019-03-15T07:39:18.041Z,5.59
2019-03-15T07:41:46.816Z,5.65
2019-03-15T07:44:15.294Z,5.67
2019-03-15T07:46:43.804Z,5.72
2019-03-15T07:49:23.712Z,5.77
2019-03-15T07:51:52.575Z,5.86
2019-03-15T07:54:23.707Z,5.89
2019-03-15T07:56:52.241Z,5.97
2019-03-15T07:59:20.708Z,5.99
2019-03-15T08:01:49.190Z,5.97
2019-03-15T08:04:18.169Z,6.00
2019-03-15T08:06:46.647Z,6.00
2019-03-15T08:09:15.119Z,6.08
2019-03-15T08:11:43.613Z,6.09
2019-03-15T08:14:12.090Z,6.05
2019-03-15T08:16:40.665Z,6.04
2019-03-15T08:19:11.765Z,6.01
2019-03-15T08:21:40.237Z,6.07
2019-03-15T08:24:08.782Z,6.11
2019-03-15T08:26:37.263Z,6.16
2019-03-15T08:29:09.418Z,6.17
2019-03-15T08:31:36.367Z,6.17
2019-03-15T08:34:05.050Z,6.08
2019-03-15T08:36:33.591Z,6.10
2019-03-15T08:39:02.063Z,6.14
2019-03-15T08:41:30.609Z,6.16
2019-03-15T08:43:59.095Z,6.19
2019-03-15T08:46:27.558Z,6.28
2019-03-15T08:48:56.041Z,6.30
2019-03-15T08:51:24.996Z,6.41
2019-03-15T08:53:53.532Z,6.43
2019-03-15T08:56:22.027Z,6.44
2019-03-15T08:58:50.598Z,6.51
2019-03-15T09:01:19.139Z,6.51
2019-03-15T09:03:47.690Z,6.51
2019-03-15T09:06:16.285Z,6.52
2019-03-15T09:08:51.158Z,6.41
2019-03-15T09:11:19.775Z,6.43
2019-03-15T09:13:49.362Z,6.54
2019-03-15T09:16:19.397Z,6.56
2019-03-15T09:18:49.453Z,6.62
2019-03-15T09:21:17.947Z,6.67
2019-03-15T09:23:46.443Z,6.73
2019-03-15T09:26:14.936Z,6.67
2019-03-15T09:28:43.903Z,6.79
2019-03-15T09:31:12.464Z,6.73
2019-03-15T09:33:44.065Z,6.70
2019-03-15T09:36:12.567Z,6.65
2019-03-15T09:38:41.112Z,6.65
2019-03-15T09:41:09.664Z,6.66
2019-03-15T09:43:38.196Z,7.01
2019-03-15T09:46:11.204Z,7.25
2019-03-15T09:48:39.759Z,7.37
2019-03-15T09:51:08.528Z,7.29
2019-03-15T09:53:37.024Z,7.44
2019-03-15T09:56:05.567Z,7.44
2019-03-15T09:58:35.427Z,7.34
2019-03-15T10:01:04.300Z,7.42
2019-03-15T10:03:33.019Z,7.58
2019-03-15T10:06:14.281Z,7.54
2019-03-15T10:08:31.696Z,7.75
2019-03-15T10:11:00.182Z,7.65
2019-03-15T10:13:28.666Z,7.78
2019-03-15T10:15:57.148Z,7.83
2019-03-15T10:18:25.586Z,7.76
2019-03-15T10:20:54.069Z,7.77
2019-03-15T10:23:22.573Z,7.62
2019-03-15T10:25:51.485Z,7.81
2019-03-15T10:28:22.744Z,7.54
2019-03-15T10:30:53.915Z,7.55
2019-03-15T10:33:22.460Z,7.49
2019-03-15T10:35:52.565Z,7.51
2019-03-15T10:38:21.850Z,7.59
2019-03-15T10:40:50.318Z,7.55
2019-03-15T10:43:20.070Z,7.38
2019-03-15T10:45:48.535Z,7.24
2019-03-15T10:48:25.405Z,7.16
2019-03-15T10:50:50.434Z,7.15
2019-03-15T10:53:18.969Z,7.13
2019-03-15T10:56:00.273Z,7.17
2019-03-15T10:58:20.605Z,7.22
2019-03-15T11:00:49.164Z,7.09
2019-03-15T11:03:18.790Z,6.98
2019-03-15T11:05:47.240Z,6.98
2019-03-15T11:08:15.811Z,6.79
2019-03-15T11:10:44.313Z,6.84
2019-03-15T11:13:12.796Z,6.76
2019-03-15T11:15:43.007Z,6.70
2019-03-15T11:18:11.468Z,6.70
2019-03-15T11:20:40.030Z,6.70
2019-03-15T11:23:08.479Z,6.82
2019-03-15T11:25:37.155Z,6.80
2019-03-15T11:28:05.622Z,6.68
2019-03-15T11:30:37.147Z,6.70
2019-03-15T11:33:05.765Z,6.65
2019-03-15T11:35:34.263Z,6.66
2019-03-15T11:38:03.101Z,6.67
2019-03-15T11:40:33.611Z,6.81
2019-03-15T11:43:01.785Z,6.56
2019-03-15T11:45:31.794Z,6.59
2019-03-15T11:48:03.946Z,6.54
2019-03-15T11:50:33.561Z,6.48
2019-03-15T11:53:02.021Z,6.45
2019-03-15T11:55:30.675Z,6.37
2019-03-15T11:57:59.221Z,6.42
2019-03-15T12:00:27.766Z,6.30
2019-03-15T12:02:57.953Z,6.31
2019-03-15T12:05:29.578Z,6.30
2019-03-15T12:07:58.207Z,6.28
2019-03-15T12:10:26.736Z,6.30
2019-03-15T12:12:55.572Z,6.27
2019-03-15T12:15:24.181Z,6.26
2019-03-15T12:17:52.923Z,6.28
2019-03-15T12:20:21.594Z,6.34
2019-03-15T12:22:50.269Z,6.55
2019-03-15T12:25:18.959Z,6.62
2019-03-15T12:27:47.419Z,6.55
2019-03-15T12:30:17.741Z,6.42
2019-03-15T12:32:46.455Z,6.39
2019-03-15T12:35:15.859Z,6.63
2019-03-15T12:37:44.374Z,6.47
2019-03-15T12:40:14.518Z,6.51
2019-03-15T12:42:43.189Z,6.57
2019-03-15T12:45:12.720Z,6.44
2019-03-15T12:47:41.271Z,6.45
2019-03-15T12:50:15.587Z,6.47
2019-03-15T12:52:48.438Z,6.48
2019-03-15T12:55:15.218Z,6.48
2019-03-15T12:57:49.307Z,6.54
2019-03-15T13:00:20.199Z,6.60
2019-03-15T13:02:50.286Z,6.63
2019-03-15T13:05:20.452Z,6.64
2019-03-15T13:07:49.058Z,6.72
2019-03-15T13:10:19.434Z,6.76
2019-03-15T13:12:48.234Z,6.80
2019-03-15T13:15:19.855Z,6.85
2019-03-15T13:17:50.079Z,6.92
2019-03-15T13:20:29.132Z,6.95
2019-03-15T13:22:56.819Z,6.95
2019-03-15T13:25:27.436Z,7.00
2019-03-15T13:27:57.658Z,7.08
2019-03-15T13:30:26.780Z,7.13
2019-03-15T13:32:57.235Z,7.28
2019-03-15T13:35:26.228Z,7.35
2019-03-15T13:38:04.733Z,7.54
2019-03-15T13:40:35.287Z,7.69
2019-03-15T13:43:04.738Z,7.73
2019-03-15T13:45:33.196Z,7.80
2019-03-15T13:48:01.812Z,7.92
2019-03-15T13:50:30.262Z,8.10
2019-03-15T13:53:00.365Z,8.08
2019-03-15T13:55:28.826Z,8.10
2019-03-15T13:57:57.358Z,8.06
2019-03-15T14:00:29.107Z,8.04
2019-03-15T14:02:58.339Z,8.04
2019-03-15T14:05:27.012Z,8.03
2019-03-15T14:07:55.803Z,8.10
2019-03-15T14:10:27.071Z,8.25
2019-03-15T14:12:55.562Z,8.36
2019-03-15T14:15:24.294Z,8.54
2019-03-15T14:17:56.119Z,8.59
2019-03-15T14:20:24.701Z,8.58
2019-03-15T14:22:55.955Z,8.62
2019-03-15T14:25:27.963Z,8.77
2019-03-15T14:27:56.648Z,8.83
2019-03-15T14:30:25.296Z,8.78
2019-03-15T14:32:53.748Z,8.77
2019-03-15T14:35:22.491Z,8.82
2019-03-15T14:37:52.667Z,8.93
2019-03-15T14:40:22.529Z,9.10
2019-03-15T14:42:55.273Z,9.20
2019-03-15T14:45:24.249Z,9.03
2019-03-15T14:47:52.766Z,8.93
2019-03-15T14:50:23.335Z,8.80
2019-03-15T14:52:53.405Z,8.78
2019-03-15T14:55:23.571Z,8.79
2019-03-15T14:57:54.997Z,8.98
2019-03-15T15:00:25.657Z,9.07
2019-03-15T15:02:55.667Z,9.13
2019-03-15T15:05:24.292Z,9.09
2019-03-15T15:07:52.821Z,9.07
2019-03-15T15:10:22.959Z,9.07
2019-03-15T15:12:53.117Z,9.06
2019-03-15T15:15:21.872Z,9.01
2019-03-15T15:17:53.326Z,8.93
2019-03-15T15:20:21.994Z,8.80
2019-03-15T15:22:50.470Z,8.78
2019-03-15T15:25:19.139Z,8.62
2019-03-15T15:27:47.797Z,8.59
2019-03-15T15:30:17.235Z,8.53
2019-03-15T15:32:45.721Z,8.49
2019-03-15T15:35:14.883Z,8.43
2019-03-15T15:37:45.523Z,8.37
2019-03-15T15:40:16.121Z,8.36
2019-03-15T15:42:45.341Z,8.31
2019-03-15T15:45:14.373Z,8.25
2019-03-15T15:47:43.011Z,8.24
2019-03-15T15:50:17.926Z,8.19
2019-03-15T15:52:48.133Z,8.17
2019-03-15T15:55:42.499Z,8.17
2019-03-15T15:58:17.866Z,8.18
2019-03-15T16:00:41.155Z,8.15
2019-03-15T16:03:09.711Z,8.17
2019-03-15T16:05:38.194Z,8.14
2019-03-15T16:08:06.827Z,8.14
2019-03-15T16:10:37.429Z,8.10
2019-03-15T16:13:16.563Z,8.08
2019-03-15T16:15:36.232Z,8.07
2019-03-15T16:18:04.786Z,8.03
2019-03-15T16:20:33.258Z,8.02
2019-03-15T16:23:04.455Z,7.94
2019-03-15T16:25:32.929Z,7.94
2019-03-15T16:28:01.409Z,7.90
2019-03-15T16:30:29.961Z,7.87
2019-03-15T16:33:03.773Z,7.82
2019-03-15T16:35:33.775Z,7.77
2019-03-15T16:38:02.463Z,7.76
2019-03-15T16:40:31.031Z,7.73
2019-03-15T16:43:06.026Z,7.70
2019-03-15T16:45:31.490Z,7.66
2019-03-15T16:48:00.052Z,7.69
2019-03-15T16:50:28.582Z,7.67
2019-03-15T16:52:57.836Z,7.60
2019-03-15T16:55:27.846Z,7.53
2019-03-15T16:57:59.338Z,7.48
2019-03-15T17:00:28.025Z,7.48
2019-03-15T17:02:56.644Z,7.42
2019-03-15T17:05:26.926Z,7.41
2019-03-15T17:07:55.397Z,7.41
2019-03-15T17:10:29.763Z,7.37
2019-03-15T17:12:58.482Z,7.36
2019-03-15T17:15:29.761Z,7.37
2019-03-15T17:17:58.325Z,7.33
2019-03-15T17:20:26.924Z,7.32
2019-03-15T17:22:55.405Z,7.26
2019-03-15T17:25:24.047Z,7.23
2019-03-15T17:27:52.542Z,7.25
2019-03-15T17:30:21.229Z,7.23
2019-03-15T17:32:49.832Z,7.24
2019-03-15T17:35:19.610Z,7.21
2019-03-15T17:37:49.352Z,7.18
2019-03-15T17:40:23.164Z,7.16
2019-03-15T17:42:51.746Z,7.12
2019-03-15T17:45:20.357Z,7.10
2019-03-15T17:47:48.904Z,7.12
2019-03-15T17:50:22.823Z,7.09
2019-03-15T17:52:51.469Z,7.09
2019-03-15T17:55:27.339Z,7.04
2019-03-15T17:57:55.722Z,7.03
2019-03-15T18:00:42.760Z,7.01
2019-03-15T18:03:20.831Z,6.99
2019-03-15T18:05:43.799Z,6.99
2019-03-15T18:08:15.194Z,6.97
2019-03-15T18:10:43.711Z,6.97
2019-03-15T18:13:12.251Z,6.92
2019-03-15T18:15:40.800Z,6.89
2019-03-15T18:18:09.359Z,6.89
2019-03-15T18:20:37.959Z,6.84
2019-03-15T18:23:10.942Z,6.87
2019-03-15T18:25:41.812Z,6.78
2019-03-15T18:28:10.813Z,6.74
2019-03-15T18:30:39.355Z,6.74
2019-03-15T18:33:07.896Z,6.73
2019-03-15T18:35:36.423Z,6.70
2019-03-15T18:38:07.704Z,6.68
2019-03-15T18:40:36.188Z,6.68
2019-03-15T18:43:04.663Z,6.71
2019-03-15T18:45:33.352Z,6.72
2019-03-15T18:48:02.321Z,6.66
2019-03-15T18:50:30.874Z,6.69
2019-03-15T18:52:59.358Z,6.68
2019-03-15T18:55:27.824Z,6.71
2019-03-15T18:57:58.732Z,6.72
2019-03-15T19:00:27.546Z,6.73
2019-03-15T19:02:56.032Z,6.74
2019-03-15T19:05:24.587Z,6.72
2019-03-15T19:07:53.029Z,6.71
2019-03-15T19:10:22.400Z,6.73
2019-03-15T19:12:53.421Z,6.73
2019-03-15T19:15:22.492Z,6.69
2019-03-15T19:17:51.086Z,6.71
2019-03-15T19:20:20.647Z,6.70
2019-03-15T19:22:49.246Z,6.66
2019-03-15T19:25:19.468Z,6.64
2019-03-15T19:27:48.055Z,6.66
2019-03-15T19:30:21.515Z,6.60
2019-03-15T19:32:50.039Z,6.56
2019-03-15T19:35:18.834Z,6.52
2019-03-15T19:37:47.385Z,6.53
2019-03-15T19:40:18.114Z,6.49
2019-03-15T19:42:46.655Z,6.53
2019-03-15T19:45:15.967Z,6.50
2019-03-15T19:47:44.524Z,6.52
2019-03-15T19:50:22.081Z,6.55
2019-03-15T19:52:50.576Z,6.52
2019-03-15T19:55:19.228Z,6.53
2019-03-15T19:57:47.766Z,6.51
2019-03-15T20:00:18.020Z,6.51
2019-03-15T20:02:46.499Z,6.52
2019-03-15T20:05:15.474Z,6.48
2019-03-15T20:07:44.132Z,6.47
2019-03-15T20:10:16.521Z,6.43
2019-03-15T20:12:44.421Z,6.47
2019-03-15T20:15:14.607Z,6.41
2019-03-15T20:17:44.716Z,6.41
2019-03-15T20:20:19.115Z,6.39
2019-03-15T20:22:47.603Z,6.40
2019-03-15T20:25:19.483Z,6.39
2019-03-15T20:27:47.967Z,6.41
2019-03-15T20:30:26.157Z,6.41
2019-03-15T20:32:51.842Z,6.40
2019-03-15T20:35:20.529Z,6.40
2019-03-15T20:37:49.056Z,6.35
2019-03-15T20:40:17.743Z,6.38
2019-03-15T20:42:46.196Z,6.38
2019-03-15T20:45:23.327Z,6.39
2019-03-15T20:47:51.794Z,6.34
2019-03-15T20:50:20.535Z,6.34
2019-03-15T20:52:49.019Z,6.31
2019-03-15T20:55:17.697Z,6.30
2019-03-15T20:57:46.261Z,6.28
2019-03-15T21:00:34.411Z,6.25
2019-03-15T21:02:50.680Z,6.24
2019-03-15T21:05:22.077Z,6.23
2019-03-15T21:07:51.018Z,6.27
2019-03-15T21:10:22.671Z,6.26
2019-03-15T21:12:51.199Z,6.25
2019-03-15T21:15:19.864Z,6.30
2019-03-15T21:17:48.328Z,6.28
2019-03-15T21:20:22.357Z,6.25
2019-03-15T21:22:51.660Z,6.23
2019-03-15T21:25:25.171Z,6.20
2019-03-15T21:27:54.750Z,6.17
2019-03-15T21:30:30.158Z,6.16
2019-03-15T21:33:02.004Z,6.16
2019-03-15T21:35:30.637Z,6.17
2019-03-15T21:37:59.269Z,6.17
2019-03-15T21:40:27.772Z,6.19
2019-03-15T21:42:56.288Z,6.16
2019-03-15T21:45:24.913Z,6.15
2019-03-15T21:47:53.859Z,6.08
2019-03-15T21:50:23.274Z,6.03
2019-03-15T21:52:51.913Z,6.05
2019-03-15T21:55:20.864Z,6.06
2019-03-15T21:57:49.315Z,6.08
2019-03-15T22:00:18.917Z,6.07
2019-03-15T22:02:47.449Z,6.06
2019-03-15T22:05:16.196Z,6.06
2019-03-15T22:07:46.222Z,6.00
2019-03-15T22:10:15.789Z,5.99
2019-03-15T22:12:44.382Z,6.06
2019-03-15T22:15:16.112Z,6.04
2019-03-15T22:17:44.875Z,6.05
2019-03-15T22:20:14.826Z,6.04
2019-03-15T22:22:43.500Z,6.03
2019-03-15T22:25:12.330Z,6.02
2019-03-15T22:27:41.323Z,6.03
2019-03-15T22:30:12.103Z,6.05
2019-03-15T22:32:41.610Z,6.08
2019-03-15T22:35:10.558Z,6.10
2019-03-15T22:37:39.040Z,6.10
2019-03-15T22:40:09.960Z,6.09
2019-03-15T22:42:38.556Z,6.08
2019-03-15T22:45:09.761Z,6.11
2019-03-15T22:47:40.026Z,6.11
2019-03-15T22:50:10.022Z,6.10
2019-03-15T22:52:38.584Z,6.11
2019-03-15T22:55:11.405Z,6.10
2019-03-15T22:57:40.169Z,6.11
2019-03-15T23:00:17.903Z,6.11
2019-03-15T23:02:46.561Z,6.10
2019-03-15T23:05:15.271Z,6.09
2019-03-15T23:07:43.817Z,6.08
2019-03-15T23:10:14.122Z,6.03
2019-03-15T23:12:42.599Z,6.03
2019-03-15T23:15:12.695Z,6.03
2019-03-15T23:17:42.213Z,6.06
2019-03-15T23:20:14.365Z,6.06
2019-03-15T23:22:42.858Z,6.08
2019-03-15T23:25:13.379Z,6.10
2019-03-15T23:27:41.867Z,6.16
2019-03-15T23:30:13.029Z,6.14
2019-03-15T23:32:41.774Z,6.12
2019-03-15T23:35:10.417Z,6.13
2019-03-15T23:37:39.091Z,6.14
2019-03-15T23:40:12.237Z,6.14
2019-03-15T23:42:42.373Z,6.12
2019-03-15T23:45:11.611Z,6.08
2019-03-15T23:47:40.226Z,6.08
2019-03-15T23:50:11.424Z,6.09
2019-03-15T23:52:40.653Z,6.07
2019-03-15T23:55:09.311Z,6.07
2019-03-15T23:57:38.729Z,6.08
